Time;durP1;ratioP1;P1;durP2;ratioP2;P2;SDS_P1;SDS_P2;PMS_P1;PMS_P2;Temp;Humidity;BMP_temperature;BMP_pressure;BME280_temperature;BME280_humidity;BME280_pressure;Samples;Min_cycle;Max_cycle;Signal;HPM_P1;HPM_P2
2022/12/25 00:00:29;;;;;;;13.15;6.80;;;;;;;1.28;100.00;98646.72;4202980;28;20329;-77
2022/12/25 00:02:29;;;;;;;15.70;6.82;;;;;;;1.22;100.00;98656.94;4201803;28;20043;-77
2022/12/25 00:04:29;;;;;;;12.45;7.03;;;;;;;1.22;100.00;98651.50;4194639;28;20101;-77
2022/12/25 00:06:30;;;;;;;12.55;7.72;;;;;;;1.29;100.00;98654.59;4199292;28;20039;-77
2022/12/25 00:08:31;;;;;;;11.95;7.10;;;;;;;1.33;100.00;98658.31;4194013;28;20036;-77
2022/12/25 00:10:31;;;;;;;10.00;6.45;;;;;;;1.30;100.00;98639.84;4200225;28;20558;-77
2022/12/25 00:12:32;;;;;;;13.95;6.88;;;;;;;1.35;100.00;98641.63;4200780;28;20397;-77
2022/12/25 00:14:32;;;;;;;13.00;6.93;;;;;;;1.36;100.00;98632.34;4202880;28;20278;-77
2022/12/25 00:16:32;;;;;;;9.82;6.05;;;;;;;1.35;100.00;98623.34;4198040;28;20047;-77
2022/12/25 00:18:33;;;;;;;14.60;6.70;;;;;;;1.35;100.00;98623.34;4189822;28;20040;-77
2022/12/25 00:20:33;;;;;;;10.48;5.97;;;;;;;1.33;100.00;98622.06;4199733;28;20040;-77
2022/12/25 00:22:34;;;;;;;9.77;6.05;;;;;;;1.28;100.00;98617.53;4200501;28;20036;-77
2022/12/25 00:24:34;;;;;;;12.93;6.57;;;;;;;1.22;100.00;98621.50;4201596;28;21241;-77
2022/12/25 00:26:34;;;;;;;10.10;6.53;;;;;;;1.15;100.00;98623.06;4200782;28;20402;-77
2022/12/25 00:28:35;;;;;;;12.13;7.60;;;;;;;1.15;100.00;98623.88;4200235;28;20039;-77
2022/12/25 00:30:39;;;;;;;14.55;8.00;;;;;;;1.20;100.00;98631.13;4198052;28;20204;-77
2022/12/25 00:32:40;;;;;;;14.02;7.15;;;;;;;1.06;100.00;98628.47;4200695;28;20055;-77
2022/12/25 00:34:41;;;;;;;11.15;7.10;;;;;;;0.97;100.00;98625.69;4200709;28;20147;-77
2022/12/25 00:36:41;;;;;;;12.73;7.85;;;;;;;0.93;100.00;98626.66;4200370;28;20543;-77
2022/12/25 00:38:42;;;;;;;12.10;7.72;;;;;;;0.90;100.00;98625.34;4199769;28;20640;-77
2022/12/25 00:40:43;;;;;;;13.23;7.43;;;;;;;0.84;100.00;98632.03;4200575;28;20040;-77
2022/12/25 00:42:43;;;;;;;17.73;8.57;;;;;;;0.74;100.00;98615.94;4200672;28;20051;-77
2022/12/25 00:44:45;;;;;;;10.82;7.85;;;;;;;0.66;100.00;98616.66;4199969;28;20500;-77
2022/12/25 00:46:45;;;;;;;13.70;7.03;;;;;;;0.66;100.00;98625.66;4198508;28;20048;-78
2022/12/25 00:48:47;;;;;;;14.90;8.00;;;;;;;0.61;100.00;98627.72;4199870;28;20251;-77
2022/12/25 00:50:47;;;;;;;11.82;7.75;;;;;;;0.60;100.00;98628.81;4200319;28;20494;-78
2022/12/25 00:52:48;;;;;;;12.38;7.65;;;;;;;0.64;100.00;98637.97;4197157;28;20139;-78
2022/12/25 00:54:48;;;;;;;13.40;8.27;;;;;;;0.60;100.00;98639.72;4200174;28;20053;-78
2022/12/25 00:56:48;;;;;;;14.65;8.75;;;;;;;0.55;100.00;98649.59;4201501;28;20048;-78
2022/12/25 00:58:49;;;;;;;13.20;8.20;;;;;;;0.51;100.00;98645.91;4201585;28;20657;-78
2022/12/25 01:00:49;;;;;;;10.25;6.97;;;;;;;0.42;100.00;98641.50;4201043;28;20041;-77
2022/12/25 01:02:49;;;;;;;9.82;5.97;;;;;;;0.35;100.00;98652.81;4194645;28;20063;-78
2022/12/25 01:04:55;;;;;;;11.80;6.50;;;;;;;0.31;100.00;98653.72;4197855;28;20533;-77
2022/12/25 01:06:55;;;;;;;12.27;6.40;;;;;;;0.32;100.00;98668.91;4193048;28;20044;-77
2022/12/25 01:11:16;;;;;;;8.75;5.97;;;;;;;0.36;100.00;98661.78;4201534;28;20098;-77
2022/12/25 01:13:16;;;;;;;7.65;5.55;;;;;;;0.32;100.00;98671.66;4198632;28;20055;-77
2022/12/25 01:15:17;;;;;;;12.07;6.43;;;;;;;0.39;100.00;98672.84;4201467;28;20044;-77
2022/12/25 01:17:17;;;;;;;10.80;6.43;;;;;;;0.39;100.00;98666.59;4198990;28;20386;-77
2022/12/25 01:19:18;;;;;;;14.30;6.53;;;;;;;0.36;100.00;98664.50;4200805;28;20067;-77
2022/12/25 01:21:22;;;;;;;10.45;6.15;;;;;;;0.39;100.00;98677.47;4201605;28;20055;-78
2022/12/25 01:23:22;;;;;;;15.18;8.00;;;;;;;0.41;100.00;98672.53;4197435;28;20094;-77
2022/12/25 01:25:22;;;;;;;12.45;6.88;;;;;;;0.45;100.00;98682.50;4197839;28;20052;-78
2022/12/25 01:27:23;;;;;;;14.07;7.82;;;;;;;0.42;100.00;98674.97;4199363;28;20044;-77
2022/12/25 01:29:23;;;;;;;17.73;7.68;;;;;;;0.50;100.00;98670.72;4202001;28;20129;-78
2022/12/25 01:31:24;;;;;;;10.43;6.47;;;;;;;0.52;100.00;98672.00;4201056;28;20251;-77
2022/12/25 01:33:24;;;;;;;12.35;6.90;;;;;;;0.48;100.00;98681.88;4195378;28;20423;-77
2022/12/25 01:35:24;;;;;;;14.18;6.28;;;;;;;0.49;100.00;98683.50;4199551;28;20063;-77
2022/12/25 01:37:25;;;;;;;10.38;6.10;;;;;;;0.48;100.00;98681.09;4200053;28;20044;-77
2022/12/25 01:39:25;;;;;;;14.95;5.68;;;;;;;0.47;100.00;98690.38;4199420;28;20048;-78
2022/12/25 01:41:26;;;;;;;9.80;5.85;;;;;;;0.43;100.00;98686.66;4201445;28;20628;-77
2022/12/25 01:43:29;;;;;;;10.50;6.20;;;;;;;0.35;100.00;98706.44;4187976;28;20045;-77
2022/12/25 01:45:32;;;;;;;8.63;6.10;;;;;;;0.31;100.00;98691.81;4200456;28;20060;-78
2022/12/25 01:47:32;;;;;;;12.25;6.07;;;;;;;0.26;100.00;98695.47;4198778;28;20339;-77
2022/12/25 01:49:37;;;;;;;10.38;6.40;;;;;;;0.16;100.00;98682.84;4201657;28;20472;-77
2022/12/25 01:52:02;;;;;;;10.95;6.13;;;;;;;0.20;100.00;98675.72;4194684;28;20047;-78
2022/12/25 01:54:07;;;;;;;16.13;7.50;;;;;;;0.17;100.00;98683.69;4197921;28;20128;-78
2022/12/25 01:56:08;;;;;;;11.80;6.45;;;;;;;0.08;100.00;98685.50;4200494;28;20126;-77
2022/12/25 01:58:08;;;;;;;8.63;5.40;;;;;;;0.01;100.00;98688.63;4199327;28;20633;-78
2022/12/25 02:00:10;;;;;;;9.82;6.15;;;;;;;-0.07;100.00;98690.16;4198649;28;20031;-77
2022/12/25 02:02:11;;;;;;;9.88;5.63;;;;;;;-0.08;100.00;98691.25;4201923;28;20089;-78
2022/12/25 02:04:37;;;;;;;9.63;5.35;;;;;;;-0.13;100.00;98694.06;4197049;28;20442;-77
2022/12/25 02:06:38;;;;;;;10.75;5.90;;;;;;;-0.12;100.00;98684.00;4201254;28;20097;-77
2022/12/25 02:08:39;;;;;;;13.73;6.13;;;;;;;-0.01;100.00;98690.84;4202442;28;20043;-77
2022/12/25 02:10:42;;;;;;;10.95;5.57;;;;;;;-0.09;100.00;98686.09;4204696;28;20052;-77
2022/12/25 02:12:44;;;;;;;9.82;5.45;;;;;;;-0.15;100.00;98690.88;4191800;28;20072;-77
2022/12/25 02:14:47;;;;;;;10.05;5.47;;;;;;;-0.17;100.00;98679.47;4201076;28;20040;-77
2022/12/25 02:16:55;;;;;;;11.90;6.97;;;;;;;-0.21;100.00;98681.19;4202973;28;20052;-77
2022/12/25 02:19:08;;;;;;;10.43;6.20;;;;;;;-0.26;100.00;98684.00;4204723;28;20701;-77
2022/12/25 02:21:19;;;;;;;12.02;6.15;;;;;;;-0.31;100.00;98675.94;4201649;28;20272;-77
2022/12/25 02:23:56;;;;;;;12.95;6.57;;;;;;;-0.33;100.00;98683.63;4202724;28;20396;-77
2022/12/25 02:26:22;;;;;;;9.55;6.07;;;;;;;-0.28;100.00;98680.78;4203793;28;20047;-77
2022/12/25 02:28:56;;;;;;;11.27;5.70;;;;;;;-0.28;100.00;98672.63;4203199;28;20040;-77
2022/12/25 02:31:07;;;;;;;;;;;;;;;-0.24;100.00;98673.66;4202432;28;20056;-77
2022/12/25 02:35:52;;;;;;;7.85;4.82;;;;;;;-0.30;100.00;98693.88;4203187;28;20506;-77
2022/12/25 02:38:00;;;;;;;10.07;6.07;;;;;;;-0.31;100.00;98689.53;4203386;28;20054;-77
2022/12/25 02:40:12;;;;;;;8.88;5.50;;;;;;;-0.29;100.00;98698.19;4195184;28;20084;-77
2022/12/25 02:42:22;;;;;;;9.98;6.38;;;;;;;-0.34;100.00;98690.13;4202585;28;20047;-77
2022/12/25 03:08:07;;;;;;;9.57;5.68;;;;;;;-0.19;100.00;98657.22;4202904;28;20397;-77
2022/12/25 03:12:57;;;;;;;;;;;;;;;-0.33;100.00;98654.50;4202318;28;20085;-77
2022/12/25 03:17:16;;;;;;;10.18;6.15;;;;;;;-0.35;100.00;98659.41;4201583;28;20091;-77
2022/12/25 03:28:38;;;;;;;10.00;5.53;;;;;;;-0.25;100.00;98671.19;4203113;28;20047;-77
2022/12/25 03:31:11;;;;;;;10.90;5.68;;;;;;;-0.18;100.00;98669.69;4202750;28;20048;-77
2022/12/25 03:33:33;;;;;;;12.75;6.03;;;;;;;-0.18;100.00;98668.88;4200212;28;20388;-77
2022/12/25 03:36:14;;;;;;;10.00;5.75;;;;;;;-0.10;100.00;98676.34;4201293;28;20072;-76
2022/12/25 04:36:45;;;;;;;9.15;5.05;;;;;;;0.35;100.00;98666.41;4202136;28;20046;-77
2022/12/25 04:38:45;;;;;;;11.85;5.57;;;;;;;0.42;100.00;98663.28;4199602;28;20048;-77
2022/12/25 04:40:46;;;;;;;10.95;5.30;;;;;;;0.44;100.00;98656.41;4191155;28;20152;-77
2022/12/25 04:42:49;;;;;;;10.32;5.50;;;;;;;0.48;100.00;98660.09;4200286;28;20459;-77
2022/12/25 04:44:49;;;;;;;12.23;5.32;;;;;;;0.51;100.00;98662.22;4200280;28;20075;-77
2022/12/25 04:46:50;;;;;;;12.80;4.65;;;;;;;0.52;100.00;98655.66;4201456;28;20055;-77
2022/12/25 04:48:50;;;;;;;10.35;4.85;;;;;;;0.55;100.00;98665.13;4202881;28;20239;-77
2022/12/25 04:50:51;;;;;;;8.43;4.50;;;;;;;0.55;100.00;98665.94;4202297;28;20240;-77
2022/12/25 04:52:51;;;;;;;9.80;4.97;;;;;;;0.58;100.00;98659.09;4199016;28;20051;-77
2022/12/25 04:54:52;;;;;;;7.10;4.63;;;;;;;0.62;100.00;98651.09;4201821;28;20040;-77
2022/12/25 04:56:52;;;;;;;7.65;4.22;;;;;;;0.64;100.00;98651.59;4200314;28;20216;-77
2022/12/25 04:58:52;;;;;;;6.07;4.43;;;;;;;0.66;100.00;98630.28;4199290;28;20050;-77
2022/12/25 05:00:53;;;;;;;6.18;4.00;;;;;;;0.68;100.00;98636.25;4200524;28;20052;-77
2022/12/25 05:02:53;;;;;;;9.93;5.03;;;;;;;0.71;100.00;98641.06;4199784;28;20047;-76
2022/12/25 05:04:53;;;;;;;6.93;4.65;;;;;;;0.73;100.00;98638.84;4200543;28;20044;-77
2022/12/25 05:06:54;;;;;;;7.75;4.15;;;;;;;0.77;100.00;98634.41;4198696;28;20127;-77
2022/12/25 05:08:54;;;;;;;7.03;5.18;;;;;;;0.77;100.00;98631.66;4201031;28;20483;-77
2022/12/25 05:10:55;;;;;;;7.68;4.50;;;;;;;0.83;100.00;98638.63;4200226;28;20079;-77
2022/12/25 05:12:55;;;;;;;7.60;4.53;;;;;;;0.81;100.00;98625.28;4198713;28;20044;-77
2022/12/25 05:14:55;;;;;;;6.43;4.55;;;;;;;0.81;100.00;98614.38;4199889;28;20050;-77
2022/12/25 05:16:56;;;;;;;9.27;4.53;;;;;;;0.81;100.00;98621.75;4200944;28;20048;-77
2022/12/25 05:18:56;;;;;;;8.95;4.63;;;;;;;0.87;100.00;98612.34;4198112;28;20416;-77
2022/12/25 05:20:57;;;;;;;9.73;4.55;;;;;;;0.93;100.00;98611.09;4200139;28;20117;-77
2022/12/25 05:22:57;;;;;;;9.43;4.45;;;;;;;0.99;100.00;98620.75;4198950;28;20130;-77
2022/12/25 05:24:58;;;;;;;9.55;4.40;;;;;;;1.04;100.00;98601.53;4201565;28;20056;-77
2022/12/25 05:26:58;;;;;;;10.52;4.95;;;;;;;1.12;100.00;98600.00;4199096;28;20052;-77
2022/12/25 05:28:59;;;;;;;7.93;4.18;;;;;;;1.13;100.00;98605.13;4199862;28;20048;-77
2022/12/25 05:30:59;;;;;;;9.35;4.43;;;;;;;1.16;100.00;98611.06;4200184;28;20082;-77
2022/12/25 05:33:00;;;;;;;10.88;5.65;;;;;;;1.20;100.00;98607.41;4200510;28;20051;-77
2022/12/25 05:35:00;;;;;;;10.45;5.03;;;;;;;1.21;100.00;98616.38;4198769;28;20609;-77
2022/12/25 05:37:00;;;;;;;11.57;5.28;;;;;;;1.11;100.00;98618.25;4201942;28;20086;-77
2022/12/25 05:39:01;;;;;;;7.38;4.28;;;;;;;1.00;100.00;98624.28;4200264;28;20518;-77
2022/12/25 05:41:01;;;;;;;8.38;4.70;;;;;;;0.94;100.00;98625.53;4201454;28;20040;-77
2022/12/25 05:43:02;;;;;;;9.50;4.55;;;;;;;0.93;100.00;98632.09;4200185;28;20052;-77
2022/12/25 05:45:02;;;;;;;13.57;5.45;;;;;;;0.94;100.00;98631.78;4202722;28;20632;-77
2022/12/25 05:47:03;;;;;;;7.55;4.28;;;;;;;0.95;100.00;98630.66;4204089;28;20044;-77
2022/12/25 05:49:04;;;;;;;7.57;4.75;;;;;;;0.95;100.00;98618.97;4192571;28;20048;-77
2022/12/25 05:51:07;;;;;;;8.52;4.72;;;;;;;0.96;100.00;98623.28;4203809;28;20105;-77
2022/12/25 05:53:09;;;;;;;9.98;4.82;;;;;;;0.97;100.00;98612.09;4202960;28;20097;-77
2022/12/25 05:55:10;;;;;;;6.55;4.20;;;;;;;0.96;100.00;98615.91;4204579;28;20460;-77
2022/12/25 05:57:10;;;;;;;10.68;4.80;;;;;;;0.98;100.00;98605.50;4195435;28;20110;-77
2022/12/25 05:59:10;;;;;;;8.65;5.13;;;;;;;1.00;100.00;98611.47;4202538;28;20066;-77
2022/12/25 06:01:17;;;;;;;6.57;4.43;;;;;;;1.00;100.00;98605.22;4202000;28;20049;-77
2022/12/25 06:03:17;;;;;;;8.02;4.78;;;;;;;1.02;100.00;98616.59;4202286;28;20371;-77
2022/12/25 06:05:18;;;;;;;8.65;4.93;;;;;;;1.02;100.00;98625.59;4203872;28;20040;-77
2022/12/25 06:07:18;;;;;;;7.88;5.00;;;;;;;1.04;100.00;98633.44;4203889;28;20079;-77
2022/12/25 06:09:19;;;;;;;10.95;4.88;;;;;;;1.05;100.00;98624.16;4203638;28;20099;-76
2022/12/25 06:11:19;;;;;;;13.40;6.40;;;;;;;1.06;100.00;98626.56;4195014;28;20127;-77
2022/12/25 06:13:20;;;;;;;9.00;5.13;;;;;;;1.09;100.00;98625.94;4202388;28;20127;-77
2022/12/25 06:15:20;;;;;;;10.65;5.00;;;;;;;1.11;100.00;98629.16;4191774;28;20335;-77
2022/12/25 06:17:24;;;;;;;8.93;5.30;;;;;;;1.17;100.00;98626.31;4201801;28;20043;-76
2022/12/25 06:19:24;;;;;;;7.93;4.57;;;;;;;1.19;100.00;98627.59;4202424;28;20532;-77
2022/12/25 06:21:25;;;;;;;8.40;4.68;;;;;;;1.19;100.00;98619.44;4201440;28;20125;-77
2022/12/25 06:23:25;;;;;;;9.57;4.70;;;;;;;1.24;100.00;98623.91;4203214;28;20056;-77
2022/12/25 06:25:26;;;;;;;6.80;4.65;;;;;;;1.24;100.00;98622.03;4200440;28;20800;-77
2022/12/25 06:27:27;;;;;;;6.82;4.45;;;;;;;1.26;100.00;98633.41;4202771;28;20054;-77
2022/12/25 06:29:27;;;;;;;6.57;4.30;;;;;;;1.29;100.00;98637.44;4204711;28;20067;-77
2022/12/25 06:31:28;;;;;;;5.32;4.03;;;;;;;1.29;100.00;98637.44;4203635;28;20047;-77
2022/12/25 06:33:28;;;;;;;9.25;5.15;;;;;;;1.29;100.00;98640.16;4204122;28;20400;-76
2022/12/25 06:35:28;;;;;;;6.70;4.03;;;;;;;1.32;100.00;98642.25;4194572;28;20048;-77
2022/12/25 06:37:30;;;;;;;6.35;4.32;;;;;;;1.32;100.00;98640.31;4203795;28;20051;-77
2022/12/25 06:39:31;;;;;;;8.95;4.72;;;;;;;1.36;100.00;98641.31;4203901;28;20046;-77
2022/12/25 06:41:31;;;;;;;7.03;4.65;;;;;;;1.38;100.00;98632.81;4203974;28;20040;-77
2022/12/25 06:43:31;;;;;;;18.17;9.73;;;;;;;1.43;100.00;98637.34;4198525;28;20037;-77
2022/12/25 06:45:34;;;;;;;32.05;13.52;;;;;;;1.47;100.00;98641.03;4202204;28;20402;-77
2022/12/25 06:47:36;;;;;;;19.73;10.25;;;;;;;1.50;100.00;98643.16;4202996;28;20666;-77
2022/12/25 06:49:37;;;;;;;18.08;8.07;;;;;;;1.49;100.00;98645.06;4203401;28;20044;-77
2022/12/25 06:51:37;;;;;;;15.30;8.98;;;;;;;1.51;100.00;98644.75;4204678;28;20051;-77
2022/12/25 06:53:38;;;;;;;15.18;7.78;;;;;;;1.54;100.00;98655.03;4201637;28;20127;-77
2022/12/25 06:55:38;;;;;;;12.68;6.68;;;;;;;1.57;100.00;98643.47;4203460;28;20039;-77
2022/12/25 06:57:38;;;;;;;12.00;6.60;;;;;;;1.59;100.00;98650.25;4203567;28;20051;-77
2022/12/25 06:59:38;;;;;;;10.35;6.50;;;;;;;1.58;100.00;98642.38;4193937;28;20057;-77
2022/12/25 07:01:48;;;;;;;8.55;5.78;;;;;;;1.61;100.00;98633.56;4201587;28;20097;-77
2022/12/25 07:03:52;;;;;;;9.73;5.85;;;;;;;1.64;100.00;98646.56;4202361;28;20040;-77
2022/12/25 07:05:53;;;;;;;11.25;6.28;;;;;;;1.64;100.00;98641.91;4199703;28;20048;-77
2022/12/25 07:07:53;;;;;;;11.80;6.35;;;;;;;1.65;100.00;98638.06;4201280;28;20177;-77
2022/12/25 07:09:54;;;;;;;10.43;5.60;;;;;;;1.65;100.00;98629.88;4201634;28;20626;-77
2022/12/25 07:12:02;;;;;;;10.85;5.95;;;;;;;1.68;100.00;98632.00;4202353;28;20044;-76
2022/12/25 07:14:02;;;;;;;9.80;5.13;;;;;;;1.68;100.00;98621.06;4199791;28;20055;-77
2022/12/25 07:16:04;;;;;;;10.50;5.90;;;;;;;1.72;100.00;98623.16;4201179;28;20668;-77
2022/12/25 07:18:04;;;;;;;8.38;5.50;;;;;;;1.72;100.00;98617.72;4203176;28;20036;-77
2022/12/25 07:20:05;;;;;;;14.75;7.45;;;;;;;1.73;100.00;98625.56;4201802;28;20024;-77
2022/12/25 07:22:06;;;;;;;13.98;8.50;;;;;;;1.75;100.00;98628.81;4193952;28;20548;-77
2022/12/25 07:24:06;;;;;;;16.77;9.02;;;;;;;1.80;100.00;98630.56;4199122;28;20066;-77
2022/12/25 07:26:09;;;;;;;12.80;8.25;;;;;;;1.80;100.00;98630.56;4202604;28;20536;-77
2022/12/25 07:28:09;;;;;;;14.13;8.27;;;;;;;1.78;100.00;98630.88;4095182;28;20045;-77
2022/12/25 07:30:10;;;;;;;13.00;8.40;;;;;;;1.80;100.00;98627.84;4178221;28;20041;-76
2022/12/25 07:32:11;;;;;;;15.88;9.80;;;;;;;1.79;100.00;98626.22;4201956;28;20028;-77
2022/12/25 07:34:11;;;;;;;12.63;8.35;;;;;;;1.82;100.00;98636.50;4201761;28;20020;-77
2022/12/25 07:36:13;;;;;;;15.00;8.70;;;;;;;1.84;100.00;98643.28;4202443;28;20154;-77
2022/12/25 07:38:13;;;;;;;13.77;8.93;;;;;;;1.84;100.00;98643.28;4201512;28;20075;-77
2022/12/25 07:40:14;;;;;;;13.35;8.18;;;;;;;1.85;100.00;98638.63;4202003;28;20289;-77
2022/12/25 07:42:14;;;;;;;14.77;8.70;;;;;;;1.87;100.00;98645.34;4203420;28;20380;-77
2022/12/25 07:44:14;;;;;;;12.02;7.88;;;;;;;1.87;100.00;98634.44;4201733;28;20353;-77
2022/12/25 07:46:15;;;;;;;12.52;7.82;;;;;;;1.87;100.00;98625.47;4202286;28;20035;-77
2022/12/25 07:48:15;;;;;;;14.45;9.23;;;;;;;1.90;100.00;98628.38;4201811;28;20500;-77
2022/12/25 07:50:16;;;;;;;14.18;8.85;;;;;;;1.93;100.00;98629.66;4200580;28;20043;-77
2022/12/25 07:52:16;;;;;;;17.73;8.77;;;;;;;1.95;100.00;98622.75;4201095;28;20368;-77
2022/12/25 07:54:17;;;;;;;14.90;8.65;;;;;;;1.97;100.00;98614.25;4191446;28;20482;-77
2022/12/25 07:56:19;;;;;;;16.42;9.45;;;;;;;1.98;100.00;98604.94;4201434;28;20024;-77
2022/12/25 07:58:19;;;;;;;18.33;10.25;;;;;;;2.00;100.00;98604.63;4201094;28;20063;-77
2022/12/25 08:00:20;;;;;;;15.20;9.20;;;;;;;2.02;100.00;98610.56;4202263;28;20573;-77
2022/12/25 08:02:26;;;;;;;12.82;8.90;;;;;;;2.02;100.00;98607.84;4201432;28;20032;-77
2022/12/25 08:04:27;;;;;;;12.45;8.02;;;;;;;2.05;100.00;98601.72;4201170;28;20040;-77
2022/12/25 08:06:33;;;;;;;11.85;7.85;;;;;;;2.06;100.00;98593.22;4201618;28;20483;-77
2022/12/25 08:08:35;;;;;;;13.25;7.90;;;;;;;2.08;100.00;98604.66;4202717;28;20277;-77
2022/12/25 08:10:36;;;;;;;11.37;7.00;;;;;;;2.10;100.00;98601.59;4191675;28;20041;-77
2022/12/25 08:12:36;;;;;;;13.35;7.28;;;;;;;2.10;100.00;98604.31;4198817;28;20263;-77
2022/12/25 08:14:36;;;;;;;13.20;7.28;;;;;;;2.14;100.00;98597.88;4202338;28;20097;-77
2022/12/25 08:16:40;;;;;;;11.88;7.55;;;;;;;2.15;100.00;98604.97;4199340;28;20122;-77
2022/12/25 08:18:41;;;;;;;12.15;7.85;;;;;;;2.23;100.00;98609.66;4202821;28;20039;-77
2022/12/25 08:20:42;;;;;;;12.73;7.93;;;;;;;2.26;100.00;98613.66;4201563;28;20395;-77
2022/12/25 08:22:42;;;;;;;16.27;8.38;;;;;;;2.31;100.00;98610.75;4198849;28;20044;-77
2022/12/25 08:24:42;;;;;;;14.30;8.57;;;;;;;2.37;100.00;98616.88;4200935;28;20120;-77
2022/12/25 08:26:43;;;;;;;14.57;8.05;;;;;;;2.43;100.00;98616.38;4201405;28;20399;-77
2022/12/25 08:28:44;;;;;;;12.63;8.10;;;;;;;2.50;100.00;98618.66;4202724;28;20040;-77
2022/12/25 08:30:44;;;;;;;16.92;8.45;;;;;;;2.54;100.00;98614.94;4200795;28;20568;-77
2022/12/25 08:32:45;;;;;;;18.77;8.38;;;;;;;2.59;100.00;98610.44;4200755;28;20052;-77
2022/12/25 08:34:45;;;;;;;17.23;8.48;;;;;;;2.65;100.00;98618.16;4200969;28;20569;-77
2022/12/25 08:36:46;;;;;;;15.52;9.13;;;;;;;2.65;100.00;98618.16;4201279;28;20056;-77
2022/12/25 08:38:47;;;;;;;14.85;9.85;;;;;;;2.71;100.00;98605.94;4201637;28;20359;-77
2022/12/25 08:40:47;;;;;;;21.00;14.00;;;;;;;2.75;100.00;98600.63;4202704;28;20059;-77
2022/12/25 08:42:47;;;;;;;35.33;18.83;;;;;;;2.80;100.00;98597.72;4202159;28;20036;-77
2022/12/25 08:44:48;;;;;;;38.13;22.70;;;;;;;2.85;100.00;98578.44;4200845;28;20085;-78
2022/12/25 08:46:48;;;;;;;43.00;23.98;;;;;;;2.87;100.00;98578.09;4202688;28;20044;-77
2022/12/25 08:48:49;;;;;;;46.60;25.27;;;;;;;2.87;100.00;98559.78;4201318;28;20122;-77
2022/12/25 08:50:51;;;;;;;36.85;19.20;;;;;;;2.90;100.00;98559.13;4200837;28;20051;-77
2022/12/25 08:52:52;;;;;;;26.45;14.73;;;;;;;2.97;100.00;98564.09;4200989;28;20112;-77
2022/12/25 08:54:52;;;;;;;26.02;13.50;;;;;;;2.94;100.00;98553.81;4201101;28;20052;-77
2022/12/25 08:56:52;;;;;;;20.38;12.82;;;;;;;2.99;100.00;98556.38;4200331;28;20047;-77
2022/12/25 08:58:53;;;;;;;19.58;9.57;;;;;;;3.02;100.00;98558.44;4200208;28;20048;-77
2022/12/25 09:00:53;;;;;;;18.70;9.57;;;;;;;3.08;100.00;98568.88;4201687;28;20109;-77
2022/12/25 09:02:54;;;;;;;18.52;10.20;;;;;;;3.08;100.00;98571.63;4200283;28;20263;-77
2022/12/25 09:04:54;;;;;;;19.15;10.55;;;;;;;3.10;100.00;98572.09;4200483;28;20495;-77
2022/12/25 09:06:55;;;;;;;19.17;11.18;;;;;;;3.14;100.00;98582.38;4200909;28;20124;-77
2022/12/25 09:08:55;;;;;;;22.58;13.77;;;;;;;3.22;100.00;98576.06;4198345;28;20266;-77
2022/12/25 09:10:59;;;;;;;20.15;11.60;;;;;;;3.27;100.00;98570.44;4198763;28;20074;-77
2022/12/25 09:13:00;;;;;;;17.30;11.18;;;;;;;3.31;100.00;98569.47;4191412;28;20041;-77
2022/12/25 09:15:00;;;;;;;20.58;11.70;;;;;;;3.40;100.00;98579.56;4195050;28;20296;-77
2022/12/25 09:17:00;;;;;;;28.25;16.48;;;;;;;3.45;100.00;98571.94;4194591;28;20379;-77
2022/12/25 09:19:01;;;;;;;29.23;15.27;;;;;;;3.50;100.00;98577.25;4198958;28;20084;-77
2022/12/25 09:21:04;;;;;;;25.50;15.52;;;;;;;3.59;100.00;98574.47;4199735;28;20537;-77
2022/12/25 09:23:04;;;;;;;22.88;14.30;;;;;;;3.65;100.00;98564.97;4199285;28;20054;-78
2022/12/25 09:25:05;;;;;;;22.25;15.85;;;;;;;3.74;100.00;98573.91;4202372;28;20119;-77
2022/12/25 09:27:06;;;;;;;32.53;19.50;;;;;;;3.84;100.00;98576.25;4202631;28;20097;-77
2022/12/25 09:29:06;;;;;;;35.17;21.50;;;;;;;3.95;100.00;98574.75;4201243;28;20426;-77
2022/12/25 09:31:07;;;;;;;38.40;20.80;;;;;;;4.02;100.00;98576.94;4199114;28;20042;-77
2022/12/25 09:33:08;;;;;;;50.47;26.77;;;;;;;4.08;100.00;98577.56;4201982;28;20055;-77
2022/12/25 09:35:08;;;;;;;45.65;25.80;;;;;;;4.13;100.00;98571.88;4201102;28;20035;-78
2022/12/25 09:37:09;;;;;;;36.28;19.40;;;;;;;4.14;100.00;98577.03;4201878;28;20373;-78
2022/12/25 09:39:09;;;;;;;26.17;16.38;;;;;;;4.22;100.00;98597.28;4199547;28;20036;-78
2022/12/25 09:41:18;;;;;;;26.73;15.35;;;;;;;4.29;100.00;98583.84;4201011;28;20036;-78
2022/12/25 09:43:20;;;;;;;23.27;13.20;;;;;;;4.40;100.00;98582.31;4205560;28;20068;-78
2022/12/25 09:45:47;;;;;;;24.70;12.75;;;;;;;4.53;100.00;98594.13;4203616;28;20222;-78
2022/12/25 09:47:48;;;;;;;15.52;10.27;;;;;;;4.55;100.00;98560.91;4200548;28;20484;-78
2022/12/25 09:50:07;;;;;;;24.95;15.20;;;;;;;4.61;100.00;98535.72;4199628;28;20162;-77
2022/12/25 09:52:14;;;;;;;21.40;13.77;;;;;;;4.78;100.00;98526.50;4197613;28;20076;-77
2022/12/25 09:54:21;;;;;;;18.85;13.00;;;;;;;4.84;100.00;98510.66;4214794;28;20388;-78
2022/12/25 09:56:27;;;;;;;16.90;11.30;;;;;;;4.96;100.00;98492.28;4204242;28;20036;-78
2022/12/25 09:58:29;;;;;;;21.33;10.60;;;;;;;5.09;100.00;98479.38;4204301;28;20476;-78
2022/12/25 10:00:38;;;;;;;12.40;9.60;;;;;;;5.31;100.00;98469.91;4204513;28;20054;-78
2022/12/25 10:02:39;;;;;;;18.10;8.82;;;;;;;5.53;100.00;98479.59;4201011;28;20044;-78
2022/12/25 10:05:08;;;;;;;12.95;8.70;;;;;;;5.61;100.00;98498.69;4204401;28;20048;-78
2022/12/25 10:07:21;;;;;;;12.75;7.72;;;;;;;5.74;100.00;98518.72;4199825;28;20044;-78
2022/12/25 10:09:24;;;;;;;15.35;8.80;;;;;;;5.77;100.00;98504.28;4204155;28;20047;-78
2022/12/25 10:11:54;;;;;;;14.80;9.25;;;;;;;5.77;100.00;98503.47;4204209;28;20484;-78
2022/12/25 10:14:09;;;;;;;18.77;11.40;;;;;;;5.79;100.00;98485.53;4203090;28;20050;-78
2022/12/25 10:16:33;;;;;;;18.17;10.00;;;;;;;5.85;100.00;98483.34;4202737;28;20177;-78
2022/12/25 10:18:45;;;;;;;19.10;10.70;;;;;;;5.99;100.00;98494.00;4203574;28;20128;-78
2022/12/25 10:20:53;;;;;;;14.48;6.78;;;;;;;6.09;100.00;98508.03;4203247;28;20036;-78
2022/12/25 10:22:59;;;;;;;21.33;10.98;;;;;;;6.16;100.00;98499.19;4202842;28;20388;-78
2022/12/25 10:25:01;;;;;;;16.90;8.43;;;;;;;6.22;100.00;98495.06;4202304;28;20093;-78
2022/12/25 10:27:12;;;;;;;13.45;7.93;;;;;;;6.30;100.00;98504.31;4203776;28;20052;-78
2022/12/25 10:29:20;;;;;;;10.45;7.18;;;;;;;6.31;100.00;98509.47;4204623;28;20132;-78
2022/12/25 10:31:27;;;;;;;12.35;7.22;;;;;;;6.31;100.00;98503.16;4203215;28;20495;-78
2022/12/25 10:33:29;;;;;;;13.85;6.82;;;;;;;6.37;100.00;98496.25;4201324;28;20053;-78
2022/12/25 10:35:31;;;;;;;12.10;6.82;;;;;;;6.38;100.00;98495.13;4203112;28;20051;-78
2022/12/25 10:37:32;;;;;;;13.73;8.23;;;;;;;6.40;100.00;98479.88;4203264;28;20091;-78
2022/12/25 10:39:32;;;;;;;12.13;8.02;;;;;;;6.40;100.00;98473.59;4203103;28;20055;-78
2022/12/25 10:41:59;;;;;;;12.98;9.45;;;;;;;6.41;100.00;98461.44;4193808;28;20325;-78
2022/12/25 10:43:59;;;;;;;12.85;7.82;;;;;;;6.37;100.00;98444.03;4196760;28;20044;-78
2022/12/25 10:45:59;;;;;;;12.65;9.18;;;;;;;6.37;100.00;98436.63;4200592;28;20130;-78
2022/12/25 10:48:03;;;;;;;12.98;8.20;;;;;;;6.43;100.00;98434.41;4203999;28;20450;-78
2022/12/25 10:50:18;;;;;;;16.90;8.50;;;;;;;6.59;100.00;98424.22;4204187;28;20464;-78
2022/12/25 10:52:23;;;;;;;10.43;6.32;;;;;;;6.69;100.00;98422.91;4189997;28;20056;-78
2022/12/25 10:54:30;;;;;;;12.52;6.18;;;;;;;6.69;100.00;98431.16;4218354;27;20048;-78
2022/12/25 10:56:30;;;;;;;10.85;5.20;;;;;;;6.75;100.00;98421.50;4201507;28;20040;-78
2022/12/25 10:58:32;;;;;;;11.32;5.10;;;;;;;6.75;100.00;98421.50;4204604;28;20116;-78
2022/12/25 11:00:32;;;;;;;15.02;7.80;;;;;;;6.80;100.00;98417.69;4204725;28;20372;-78
2022/12/25 11:02:39;;;;;;;15.98;7.30;;;;;;;6.83;100.00;98417.78;4203351;28;20362;-78
2022/12/25 11:04:39;;;;;;;10.38;6.70;;;;;;;6.83;100.00;98419.72;4203312;28;20479;-78
2022/12/25 11:06:41;;;;;;;12.45;6.07;;;;;;;6.87;100.00;98431.59;4203644;28;20048;-78
2022/12/25 11:08:42;;;;;;;8.88;4.57;;;;;;;6.94;100.00;98437.28;4201324;28;20387;-78
2022/12/25 11:10:42;;;;;;;6.97;4.35;;;;;;;7.03;100.00;98448.91;4201001;28;20047;-78
2022/12/25 11:12:44;;;;;;;11.73;4.65;;;;;;;7.07;100.00;98460.81;4202608;28;20055;-78
2022/12/25 11:14:53;;;;;;;8.90;4.80;;;;;;;7.11;100.00;98461.69;4202263;28;20399;-78